createdAt,value
2024-03-10T00:01:59.696Z,9.90
2024-03-10T00:04:30.760Z,11.63
2024-03-10T00:06:59.853Z,10.50
2024-03-10T00:09:31.473Z,10.97
2024-03-10T00:12:00.182Z,11.00
2024-03-10T00:14:28.821Z,10.33
2024-03-10T00:16:57.687Z,11.10
2024-03-10T00:19:26.760Z,10.40
2024-03-10T00:21:56.006Z,10.10
2024-03-10T00:24:24.441Z,11.77
2024-03-10T00:26:54.293Z,11.07
2024-03-10T00:29:22.856Z,11.13
2024-03-10T00:31:53.135Z,10.47
2024-03-10T00:34:22.460Z,11.17
2024-03-10T00:36:51.147Z,11.90
2024-03-10T00:39:20.905Z,10.10
2024-03-10T00:41:49.368Z,10.73
2024-03-10T00:44:19.497Z,10.60
2024-03-10T00:46:48.361Z,10.07
2024-03-10T00:49:17.689Z,10.03
2024-03-10T00:51:46.397Z,9.87
2024-03-10T00:54:15.244Z,10.40
2024-03-10T00:56:43.751Z,9.90
2024-03-10T00:59:12.448Z,12.03
2024-03-10T01:01:42.421Z,12.47
2024-03-10T01:04:11.011Z,10.57
2024-03-10T01:06:40.149Z,11.87
2024-03-10T01:09:09.930Z,11.33
2024-03-10T01:11:39.362Z,10.70
2024-03-10T01:14:08.257Z,10.63
2024-03-10T01:16:36.821Z,10.70
2024-03-10T01:19:06.697Z,9.50
2024-03-10T01:21:35.173Z,10.57
2024-03-10T01:24:07.555Z,10.53
2024-03-10T01:26:36.523Z,11.90
2024-03-10T01:29:05.269Z,10.73
2024-03-10T01:31:34.264Z,11.53
2024-03-10T01:34:03.783Z,14.77
2024-03-10T01:36:34.291Z,9.73
2024-03-10T01:39:03.633Z,9.43
2024-03-10T01:41:33.097Z,10.70
2024-03-10T01:44:02.238Z,10.77
2024-03-10T01:46:30.876Z,9.53
2024-03-10T01:48:59.875Z,11.10
2024-03-10T01:51:28.805Z,9.40
2024-03-10T01:54:00.457Z,10.10
2024-03-10T01:56:29.495Z,9.67
2024-03-10T01:58:58.571Z,9.57
2024-03-10T02:01:28.445Z,10.10
2024-03-10T02:03:57.168Z,9.43
2024-03-10T02:06:26.512Z,8.93
2024-03-10T02:08:55.344Z,9.80
2024-03-10T02:11:25.987Z,9.60
2024-03-10T02:13:55.579Z,8.77
2024-03-10T02:16:24.693Z,9.10
2024-03-10T02:18:53.342Z,8.67
2024-03-10T02:21:22.743Z,9.43
2024-03-10T02:23:59.265Z,10.07
2024-03-10T02:26:34.120Z,8.90
2024-03-10T02:29:17.684Z,9.03
2024-03-10T02:32:05.113Z,13.97
2024-03-10T02:34:51.623Z,9.47
2024-03-10T02:37:37.702Z,9.70
2024-03-10T02:40:25.110Z,10.23
2024-03-10T02:43:12.885Z,9.63
2024-03-10T02:46:00.218Z,9.23
2024-03-10T02:48:28.801Z,9.10
2024-03-10T02:50:57.418Z,8.63
2024-03-10T02:53:26.158Z,9.80
2024-03-10T02:55:54.918Z,9.93
2024-03-10T02:58:24.990Z,9.73
2024-03-10T03:00:53.636Z,9.60
2024-03-10T03:03:22.931Z,10.43
2024-03-10T03:05:52.461Z,9.73
2024-03-10T03:08:21.145Z,9.40
2024-03-10T03:10:49.720Z,8.77
2024-03-10T03:13:19.126Z,9.77
2024-03-10T03:15:49.203Z,9.43
2024-03-10T03:18:17.840Z,10.70
2024-03-10T03:20:46.332Z,9.97
2024-03-10T03:23:15.131Z,9.63
2024-03-10T03:25:44.172Z,9.17
2024-03-10T03:28:13.949Z,9.70
2024-03-10T03:30:43.331Z,10.67
2024-03-10T03:33:13.601Z,10.53
2024-03-10T03:35:42.458Z,10.80
2024-03-10T03:38:11.336Z,10.20
2024-03-10T03:40:40.800Z,9.83
2024-03-10T03:43:11.754Z,9.23
2024-03-10T03:45:40.175Z,10.23
2024-03-10T03:48:09.031Z,9.80
2024-03-10T03:50:38.973Z,10.43
2024-03-10T03:53:07.515Z,10.37
2024-03-10T03:55:35.963Z,10.83
2024-03-10T03:58:04.661Z,10.53
2024-03-10T04:00:33.257Z,10.60
2024-03-10T04:03:02.147Z,9.50
2024-03-10T04:05:31.343Z,10.53
2024-03-10T04:08:01.229Z,10.63
2024-03-10T04:10:29.914Z,9.73
2024-03-10T04:12:58.484Z,10.97
2024-03-10T04:15:27.204Z,11.17
2024-03-10T04:17:55.759Z,10.63
2024-03-10T04:20:25.444Z,11.50
2024-03-10T04:22:55.583Z,10.67
2024-03-10T04:25:25.477Z,11.33
2024-03-10T04:27:54.593Z,12.27
2024-03-10T04:30:24.143Z,11.50
2024-03-10T04:32:53.083Z,10.70
2024-03-10T04:35:21.558Z,11.53
2024-03-10T04:37:50.083Z,11.33
2024-03-10T04:40:19.415Z,10.80
2024-03-10T04:42:49.646Z,11.77
2024-03-10T04:45:18.153Z,10.87
2024-03-10T04:47:46.939Z,12.57
2024-03-10T04:50:15.709Z,11.27
2024-03-10T04:52:47.135Z,12.53
2024-03-10T04:55:16.271Z,12.87
2024-03-10T04:57:46.222Z,12.57
2024-03-10T05:00:19.719Z,12.17
2024-03-10T05:02:48.427Z,11.87
2024-03-10T05:05:18.323Z,11.80
2024-03-10T05:07:52.182Z,11.63
2024-03-10T05:10:21.180Z,12.00
2024-03-10T05:12:49.664Z,12.27
2024-03-10T05:15:19.688Z,12.33
2024-03-10T05:17:48.349Z,11.53
2024-03-10T05:20:19.071Z,11.40
2024-03-10T05:22:47.799Z,13.50
2024-03-10T05:25:17.004Z,12.57
2024-03-10T05:27:46.679Z,11.20
2024-03-10T05:30:17.139Z,12.70
2024-03-10T05:32:47.556Z,12.70
2024-03-10T05:35:16.286Z,12.00
2024-03-10T05:37:45.859Z,12.23
2024-03-10T05:40:14.538Z,12.33
2024-03-10T05:42:43.374Z,11.97
2024-03-10T05:45:12.320Z,12.23
2024-03-10T05:47:40.900Z,11.87
2024-03-10T05:50:11.082Z,12.47
2024-03-10T05:52:39.641Z,12.27
2024-03-10T05:55:08.749Z,13.90
2024-03-10T05:57:38.124Z,13.10
2024-03-10T06:00:15.023Z,12.67
2024-03-10T06:02:45.714Z,12.60
2024-03-10T06:05:15.914Z,13.30
2024-03-10T06:07:45.696Z,14.20
2024-03-10T06:10:14.433Z,13.83
2024-03-10T06:12:43.442Z,14.10
2024-03-10T06:15:17.228Z,13.40
2024-03-10T06:18:03.218Z,13.40
2024-03-10T06:20:56.846Z,13.50
2024-03-10T06:23:43.354Z,13.40
2024-03-10T06:26:12.459Z,13.47
2024-03-10T06:28:40.969Z,13.27
2024-03-10T06:31:09.917Z,13.47
2024-03-10T06:33:39.687Z,12.47
2024-03-10T06:36:11.191Z,13.10
2024-03-10T06:38:40.991Z,13.97
2024-03-10T06:41:09.773Z,13.33
2024-03-10T06:43:39.629Z,13.23
2024-03-10T06:46:10.115Z,12.63
2024-03-10T06:48:39.164Z,18.13
2024-03-10T06:51:07.996Z,13.77
2024-03-10T06:53:38.459Z,13.77
2024-03-10T06:56:08.441Z,11.60
2024-03-10T06:58:36.927Z,12.67
2024-03-10T07:01:06.998Z,13.33
2024-03-10T07:03:37.156Z,12.70
2024-03-10T07:06:08.263Z,12.93
2024-03-10T07:08:38.692Z,13.80
2024-03-10T07:11:07.363Z,12.30
2024-03-10T07:13:35.924Z,14.33
2024-03-10T07:16:04.734Z,14.07
2024-03-10T07:18:33.458Z,14.20
2024-03-10T07:21:02.274Z,13.77
2024-03-10T07:23:32.035Z,14.03
2024-03-10T07:26:02.976Z,14.37
2024-03-10T07:28:32.715Z,13.93
2024-03-10T07:31:02.037Z,14.33
2024-03-10T07:33:30.579Z,14.20
2024-03-10T07:35:59.147Z,13.97
2024-03-10T07:38:29.887Z,14.23
2024-03-10T07:40:59.855Z,14.53
2024-03-10T07:43:30.879Z,13.27
2024-03-10T07:46:00.174Z,14.10
2024-03-10T07:48:28.818Z,13.23
2024-03-10T07:50:57.459Z,13.67
2024-03-10T07:53:26.106Z,13.70
2024-03-10T07:55:55.363Z,14.07
2024-03-10T07:58:24.318Z,13.83
2024-03-10T08:00:55.522Z,14.37
2024-03-10T08:03:24.805Z,13.10
2024-03-10T08:05:53.402Z,13.63
2024-03-10T08:08:21.983Z,13.83
2024-03-10T08:10:50.676Z,13.70
2024-03-10T08:13:19.319Z,14.33
2024-03-10T08:15:49.648Z,13.60
2024-03-10T08:18:21.155Z,14.23
2024-03-10T08:20:50.081Z,14.87
2024-03-10T08:23:18.781Z,14.73
2024-03-10T08:25:49.681Z,14.37
2024-03-10T08:28:19.742Z,13.83
2024-03-10T08:30:50.440Z,14.73
2024-03-10T08:33:20.958Z,14.47
2024-03-10T08:35:49.770Z,15.27
2024-03-10T08:38:19.292Z,19.83
2024-03-10T08:40:50.631Z,14.50
2024-03-10T08:43:19.533Z,13.67
2024-03-10T08:45:48.673Z,14.60
2024-03-10T08:48:17.547Z,14.47
2024-03-10T08:50:48.013Z,13.73
2024-03-10T08:53:16.567Z,14.70
2024-03-10T08:55:46.604Z,14.63
2024-03-10T08:58:16.531Z,14.07
2024-03-10T09:00:45.932Z,13.73
2024-03-10T09:03:14.430Z,14.17
2024-03-10T09:05:43.619Z,14.43
2024-03-10T09:08:14.657Z,14.70
2024-03-10T09:10:53.060Z,14.93
2024-03-10T09:13:28.274Z,14.47
2024-03-10T09:15:57.429Z,14.93
2024-03-10T09:18:26.989Z,14.97
2024-03-10T09:20:55.612Z,13.63
2024-03-10T09:23:26.529Z,14.83
2024-03-10T09:25:56.042Z,14.77
2024-03-10T09:28:26.332Z,14.67
2024-03-10T09:30:56.430Z,15.10
2024-03-10T09:33:25.078Z,14.37
2024-03-10T09:35:56.713Z,15.00
2024-03-10T09:38:26.794Z,14.87
2024-03-10T09:40:57.466Z,14.07
2024-03-10T09:43:31.842Z,14.63
2024-03-10T09:46:00.364Z,14.03
2024-03-10T09:48:29.360Z,14.63
2024-03-10T09:50:59.493Z,14.70
2024-03-10T09:53:29.552Z,16.97
2024-03-10T09:55:58.988Z,14.27
2024-03-10T09:58:40.246Z,16.80
2024-03-10T10:01:15.340Z,14.40
2024-03-10T10:03:45.930Z,14.10
2024-03-10T10:06:16.696Z,15.13
2024-03-10T10:08:46.980Z,14.77
2024-03-10T10:11:15.794Z,15.40
2024-03-10T10:13:44.677Z,21.03
2024-03-10T10:16:15.192Z,15.13
2024-03-10T10:18:51.565Z,15.63
2024-03-10T10:21:26.294Z,16.07
2024-03-10T10:23:57.317Z,14.47
2024-03-10T10:26:26.079Z,14.30
2024-03-10T10:31:57.831Z,17.03
2024-03-10T10:34:26.621Z,14.77
2024-03-10T10:36:57.023Z,15.47
2024-03-10T10:39:28.329Z,13.87
2024-03-10T10:42:01.813Z,14.70
2024-03-10T10:44:31.611Z,13.87
2024-03-10T10:47:02.025Z,15.40
2024-03-10T10:49:34.923Z,15.07
2024-03-10T10:52:04.075Z,14.23
2024-03-10T10:54:35.607Z,15.77
2024-03-10T10:57:10.008Z,15.40
2024-03-10T10:59:41.464Z,14.70
2024-03-10T11:02:20.494Z,15.70
2024-03-10T11:04:49.751Z,14.67
2024-03-10T11:07:19.838Z,14.63
2024-03-10T11:09:50.768Z,15.13
2024-03-10T11:12:22.406Z,15.07
2024-03-10T11:14:52.874Z,14.97
2024-03-10T11:17:24.196Z,15.53
2024-03-10T11:19:55.443Z,14.83
2024-03-10T11:22:26.911Z,15.43
2024-03-10T11:25:12.605Z,14.73
2024-03-10T11:27:46.468Z,15.97
2024-03-10T11:30:49.144Z,14.30
2024-03-10T11:33:24.043Z,15.77
2024-03-10T11:35:54.124Z,14.43
2024-03-10T11:38:24.420Z,23.80
2024-03-10T11:41:16.973Z,14.43
2024-03-10T11:43:48.708Z,13.70
2024-03-10T11:46:21.079Z,14.43
2024-03-10T11:48:53.254Z,15.07
2024-03-10T11:51:22.350Z,15.13
2024-03-10T11:53:52.299Z,14.40
2024-03-10T11:56:23.486Z,13.53
2024-03-10T11:58:54.036Z,14.23
2024-03-10T12:01:22.809Z,14.30
2024-03-10T12:03:58.333Z,13.80
2024-03-10T12:06:28.528Z,13.73
2024-03-10T12:08:57.949Z,13.43
2024-03-10T12:11:27.987Z,13.70
2024-03-10T12:13:56.915Z,14.27
2024-03-10T12:16:25.684Z,14.17
2024-03-10T12:18:59.840Z,16.03
2024-03-10T12:21:30.568Z,13.77
2024-03-10T12:24:01.544Z,15.03
2024-03-10T12:26:34.246Z,14.73
2024-03-10T12:29:05.039Z,13.97
2024-03-10T12:31:38.582Z,13.83
2024-03-10T12:34:12.240Z,13.53
2024-03-10T12:36:41.149Z,13.37
2024-03-10T12:39:12.740Z,13.30
2024-03-10T12:41:43.707Z,13.30
2024-03-10T12:44:13.003Z,13.80
2024-03-10T12:46:43.989Z,12.80
2024-03-10T12:49:15.325Z,13.23
2024-03-10T12:51:44.548Z,13.47
2024-03-10T12:54:14.445Z,14.70
2024-03-10T12:56:47.455Z,13.97
2024-03-10T12:59:19.068Z,13.20
2024-03-10T13:01:51.873Z,12.63
2024-03-10T13:04:21.109Z,12.23
2024-03-10T13:06:50.519Z,12.73
2024-03-10T13:09:21.797Z,12.57
2024-03-10T13:11:55.231Z,12.20
2024-03-10T13:14:25.256Z,11.03
2024-03-10T13:16:55.238Z,11.53
2024-03-10T13:19:24.696Z,11.93
2024-03-10T13:21:54.167Z,11.13
2024-03-10T13:24:25.758Z,10.60
2024-03-10T13:26:58.127Z,10.93
2024-03-10T13:30:43.797Z,11.57
2024-03-10T13:33:12.698Z,11.67
2024-03-10T13:35:41.489Z,10.37
2024-03-10T13:38:15.735Z,10.37
2024-03-10T13:40:58.544Z,9.73
